Time;durP1;ratioP1;P1;durP2;ratioP2;P2;SDS_P1;SDS_P2;PMS_P1;PMS_P2;Temp;Humidity;BMP_temperature;BMP_pressure;BME280_temperature;BME280_humidity;BME280_pressure;Samples;Min_cycle;Max_cycle;Signal;HPM_P1;HPM_P2
2022/03/21 00:00:53;;;;;;;11.37;7.80;;;;;;;2.00;50.07;98063.22;10415492;28;20557;-58
2022/03/21 00:05:54;;;;;;;14.30;7.67;;;;;;;1.84;49.71;98055.34;10416053;28;20596;-56
2022/03/21 00:10:55;;;;;;;17.23;7.20;;;;;;;1.58;51.04;98067.66;10415531;28;20263;-54
2022/03/21 00:15:56;;;;;;;13.53;7.77;;;;;;;1.96;49.04;98020.34;10415617;28;20203;-58
2022/03/21 00:20:56;;;;;;;14.10;7.97;;;;;;;1.68;50.01;98037.09;10415105;28;20188;-59
2022/03/21 00:25:57;;;;;;;13.47;7.03;;;;;;;1.67;50.00;98045.75;10414700;28;20232;-55
2022/03/21 00:30:57;;;;;;;12.93;7.07;;;;;;;1.37;50.92;98047.94;10415188;28;20228;-54
2022/03/21 00:35:58;;;;;;;14.43;8.50;;;;;;;1.56;49.92;98029.88;10414608;28;20318;-54
2022/03/21 00:40:58;;;;;;;17.70;8.17;;;;;;;1.02;52.86;98086.38;10414679;28;20290;-57
2022/03/21 00:45:59;;;;;;;13.30;7.67;;;;;;;0.01;56.73;98147.84;10414220;28;20264;-56
2022/03/21 00:50:59;;;;;;;12.57;7.43;;;;;;;-0.19;57.00;98154.53;10413986;28;20201;-54
2022/03/21 00:55:59;;;;;;;13.57;7.90;;;;;;;-0.33;57.55;98165.31;10414197;28;20273;-53
2022/03/21 01:01:00;;;;;;;12.70;7.77;;;;;;;-0.56;59.19;98210.69;10413459;28;20215;-58
2022/03/21 01:06:00;;;;;;;14.23;7.90;;;;;;;-1.09;60.74;98244.97;10413541;28;20652;-51
2022/03/21 01:11:01;;;;;;;14.07;7.40;;;;;;;-1.26;60.80;98221.47;10412414;28;20216;-56
2022/03/21 01:16:01;;;;;;;13.40;7.00;;;;;;;-1.47;62.56;98262.34;10413237;28;20705;-56
2022/03/21 01:21:02;;;;;;;16.90;7.90;;;;;;;-1.76;63.94;98280.28;10412784;28;20580;-59
2022/03/21 01:26:02;;;;;;;11.50;7.67;;;;;;;-1.87;64.39;98278.00;10412636;28;20578;-59
2022/03/21 01:31:03;;;;;;;14.50;7.70;;;;;;;-2.16;66.72;98321.50;10412703;28;20666;-55
2022/03/21 01:36:05;;;;;;;15.77;8.00;;;;;;;-2.21;66.29;98292.53;10411379;28;20270;-59
2022/03/21 01:41:05;;;;;;;14.20;7.57;;;;;;;-2.47;67.22;98318.00;10410474;28;20258;-61
2022/03/21 01:46:06;;;;;;;13.73;7.40;;;;;;;-2.53;67.46;98295.88;10412033;28;20373;-58
2022/03/21 01:51:06;;;;;;;14.40;8.10;;;;;;;-1.92;64.79;98242.16;10412196;28;20188;-51
2022/03/21 01:56:07;;;;;;;15.97;7.97;;;;;;;-1.91;65.24;98248.16;10411766;28;20683;-55
2022/03/21 02:01:07;;;;;;;14.73;6.97;;;;;;;-2.15;65.49;98229.94;10393561;28;20275;-54
2022/03/21 02:06:08;;;;;;;15.30;7.07;;;;;;;-2.28;65.37;98233.69;10411019;28;20278;-54
2022/03/21 02:11:08;;;;;;;15.23;7.17;;;;;;;-2.17;66.33;98249.66;10411463;28;20283;-54
2022/03/21 02:16:09;;;;;;;14.13;8.00;;;;;;;-2.27;67.26;98267.00;10411370;28;20266;-53
2022/03/21 02:21:16;;;;;;;14.87;7.20;;;;;;;-2.72;68.14;98255.28;10410409;28;20231;-54
2022/03/21 02:26:16;;;;;;;14.97;7.83;;;;;;;-2.80;69.03;98270.00;10411060;28;20228;-56
2022/03/21 02:31:17;;;;;;;13.00;7.17;;;;;;;-2.99;70.00;98282.38;10410762;28;20192;-54
2022/03/21 02:36:18;;;;;;;12.70;7.10;;;;;;;-3.02;71.14;98302.94;10411079;28;20173;-55
2022/03/21 02:41:19;;;;;;;15.60;7.57;;;;;;;-3.08;71.42;98288.56;10393093;28;20187;-54
2022/03/21 02:46:19;;;;;;;13.23;7.63;;;;;;;-3.08;72.03;98303.09;10410567;28;20710;-53
2022/03/21 02:51:21;;;;;;;12.77;7.23;;;;;;;-3.36;72.55;98301.09;10410534;28;20538;-60
2022/03/21 02:56:22;;;;;;;16.73;7.93;;;;;;;-3.14;71.99;98292.97;10410507;28;20235;-55
2022/03/21 03:01:22;;;;;;;15.20;8.23;;;;;;;-3.42;74.14;98324.28;10410481;28;20628;-56
2022/03/21 03:06:22;;;;;;;14.67;7.93;;;;;;;-3.43;73.90;98313.19;10405043;28;20232;-55
2022/03/21 03:11:23;;;;;;;16.00;7.90;;;;;;;-3.60;74.53;98326.34;10404017;28;20196;-58
2022/03/21 03:16:23;;;;;;;14.53;8.20;;;;;;;-3.62;73.68;98286.25;10408210;28;20196;-54
2022/03/21 03:21:25;;;;;;;13.37;7.83;;;;;;;-3.63;75.01;98305.91;10409303;28;20692;-55
2022/03/21 03:26:26;;;;;;;13.70;8.00;;;;;;;-3.78;75.48;98301.91;10409785;28;20311;-54
2022/03/21 03:31:26;;;;;;;14.27;7.90;;;;;;;-3.86;74.88;98295.22;10409815;28;20196;-54
2022/03/21 03:36:27;;;;;;;19.83;8.30;;;;;;;-3.95;75.26;98301.38;10397732;28;20258;-55
2022/03/21 03:41:27;;;;;;;22.00;7.83;;;;;;;-3.89;76.66;98300.41;10416690;28;20319;-54
2022/03/21 03:46:28;;;;;;;16.27;8.07;;;;;;;-4.07;76.73;98293.88;10416585;28;20227;-53
2022/03/21 03:51:28;;;;;;;12.43;7.57;;;;;;;-4.05;77.34;98299.84;10416554;28;20568;-54
2022/03/21 03:56:28;;;;;;;15.23;7.67;;;;;;;-4.17;76.55;98277.84;10416456;28;20192;-55
2022/03/21 04:01:29;;;;;;;12.37;7.07;;;;;;;-4.12;77.18;98291.41;10416130;28;20234;-58
2022/03/21 04:06:29;;;;;;;14.43;7.33;;;;;;;-4.43;78.84;98301.31;10416070;28;20224;-58
2022/03/21 04:11:30;;;;;;;14.37;7.47;;;;;;;-4.37;79.84;98312.28;10415894;28;20219;-56
2022/03/21 04:16:30;;;;;;;11.97;7.00;;;;;;;-4.41;79.17;98274.88;10415408;28;20295;-56
2022/03/21 04:21:30;;;;;;;12.07;7.63;;;;;;;-4.56;79.23;98295.56;10414543;28;20188;-55
2022/03/21 04:26:31;;;;;;;13.30;7.70;;;;;;;-4.46;79.80;98286.03;10415376;28;20238;-54
2022/03/21 04:31:32;;;;;;;12.33;7.23;;;;;;;-4.72;80.77;98307.72;10451222;23;20344;-55
2022/03/21 04:36:32;;;;;;;17.67;7.93;;;;;;;-4.83;82.60;98320.66;10455763;28;20255;-58
2022/03/21 04:41:33;;;;;;;15.00;7.97;;;;;;;-4.77;82.94;98319.75;10455427;28;20208;-55
2022/03/21 04:46:33;;;;;;;12.47;6.93;;;;;;;-4.85;82.39;98304.50;10455592;28;20254;-54
2022/03/21 04:51:33;;;;;;;13.37;7.83;;;;;;;-4.84;82.59;98301.06;10455651;28;20197;-54
2022/03/21 04:56:34;;;;;;;13.83;7.47;;;;;;;-4.85;82.49;98299.41;10455713;28;20240;-54
2022/03/21 05:01:34;;;;;;;15.17;7.83;;;;;;;-4.77;81.70;98272.00;10454974;28;20221;-52
2022/03/21 05:06:34;;;;;;;17.83;8.00;;;;;;;-4.72;81.92;98288.09;10455142;28;20254;-53
2022/03/21 05:11:35;;;;;;;13.13;8.10;;;;;;;-4.82;82.32;98291.69;10454765;28;20223;-54
2022/03/21 05:16:35;;;;;;;14.23;8.17;;;;;;;-4.73;82.98;98290.69;10454689;28;20201;-52
2022/03/21 05:21:35;;;;;;;16.20;7.50;;;;;;;-4.75;81.73;98294.97;10454065;28;20221;-52
2022/03/21 05:31:55;;;;;;;16.67;8.03;;;;;;;-4.80;81.99;98300.16;10454045;28;20705;-53
2022/03/21 05:36:55;;;;;;;16.13;8.23;;;;;;;-4.76;83.52;98304.38;10453718;28;20191;-56
2022/03/21 05:41:55;;;;;;;24.17;10.23;;;;;;;-4.71;82.55;98305.16;10453921;28;20682;-53
2022/03/21 05:46:56;;;;;;;23.20;10.50;;;;;;;-4.46;82.72;98317.56;10453366;28;20737;-54
2022/03/21 05:51:56;;;;;;;51.07;19.97;;;;;;;-4.26;82.70;98304.44;10453413;28;20693;-56
2022/03/21 05:56:57;;;;;;;50.13;17.37;;;;;;;-4.13;81.28;98276.94;10452882;28;20787;-52
2022/03/21 06:01:57;;;;;;;22.80;11.50;;;;;;;-4.00;81.33;98290.34;10452937;28;20596;-55
2022/03/21 06:06:57;;;;;;;18.33;10.77;;;;;;;-4.12;81.83;98297.38;10452991;28;20608;-54
2022/03/21 06:11:58;;;;;;;19.53;10.00;;;;;;;-3.82;81.09;98287.47;10452526;28;20715;-56
2022/03/21 06:16:58;;;;;;;13.57;8.33;;;;;;;-2.86;79.38;98272.72;10452746;28;20561;-53
2022/03/21 06:21:58;;;;;;;18.03;8.53;;;;;;;-1.59;71.29;98152.19;10451762;28;20211;-56
2022/03/21 06:26:59;;;;;;;19.43;9.33;;;;;;;-0.86;71.03;98167.94;10452329;28;20227;-55
2022/03/21 06:31:59;;;;;;;13.83;7.83;;;;;;;0.05;67.12;98103.88;10452028;28;20290;-56
2022/03/21 06:37:02;;;;;;;17.43;8.13;;;;;;;0.84;66.19;98116.34;10452166;28;20189;-54
2022/03/21 06:42:02;;;;;;;14.87;8.53;;;;;;;1.56;64.18;98092.72;10452181;28;20705;-54
2022/03/21 06:47:03;;;;;;;18.83;8.43;;;;;;;2.74;59.44;98017.53;10452111;28;20215;-57
2022/03/21 06:52:06;;;;;;;17.10;9.50;;;;;;;2.52;58.46;98005.66;10451735;28;20229;-54
2022/03/21 06:57:07;;;;;;;10.40;6.70;;;;;;;3.22;50.87;97853.69;10451966;28;20275;-53
2022/03/21 07:02:07;;;;;;;8.80;5.80;;;;;;;2.81;49.11;97812.72;10451597;28;20295;-56
2022/03/21 07:07:07;;;;;;;10.70;4.53;;;;;;;3.41;45.75;97754.28;10450294;28;20780;-54
2022/03/21 07:12:08;;;;;;;8.57;4.93;;;;;;;3.45;45.14;97749.78;10458485;28;20216;-61
2022/03/21 07:17:08;;;;;;;9.10;5.60;;;;;;;4.19;44.77;97790.44;10459410;28;20211;-56
2022/03/21 07:22:09;;;;;;;10.63;5.23;;;;;;;4.29;42.79;97754.44;10458694;28;20290;-55
2022/03/21 07:27:09;;;;;;;7.50;4.77;;;;;;;4.43;41.74;97743.22;10458919;28;20220;-55
2022/03/21 07:32:09;;;;;;;11.50;5.80;;;;;;;4.60;42.25;97761.19;10458650;28;20236;-58
2022/03/21 07:37:10;;;;;;;8.30;5.40;;;;;;;4.44;42.25;97773.41;10458809;28;20190;-60
2022/03/21 07:42:15;;;;;;;10.60;5.70;;;;;;;4.70;41.53;97747.66;10458084;28;20216;-55
2022/03/21 07:47:20;;;;;;;9.80;5.30;;;;;;;5.84;39.82;97730.84;10456659;28;20247;-58
2022/03/21 07:52:21;;;;;;;8.93;5.47;;;;;;;6.28;38.37;97705.44;10458099;28;20716;-58
2022/03/21 07:57:26;;;;;;;9.97;5.80;;;;;;;6.03;39.14;97733.13;10457790;28;20176;-56
2022/03/21 08:02:28;;;;;;;9.93;5.50;;;;;;;6.09;38.44;97733.63;10456065;28;20218;-55
2022/03/21 08:07:28;;;;;;;9.50;5.40;;;;;;;5.64;39.16;97741.75;10450993;28;20942;-57
2022/03/21 08:12:29;;;;;;;9.27;5.33;;;;;;;5.69;38.95;97737.88;10452215;28;20207;-57
2022/03/21 08:17:30;;;;;;;9.40;5.43;;;;;;;5.92;38.80;97758.13;10428620;28;20201;-59
2022/03/21 08:22:31;;;;;;;8.93;5.43;;;;;;;6.46;37.79;97749.34;10423750;28;20647;-57
2022/03/21 08:27:35;;;;;;;10.97;5.43;;;;;;;7.55;36.56;97751.25;10449482;28;20302;-62
2022/03/21 08:32:35;;;;;;;7.67;5.30;;;;;;;7.94;34.96;97712.75;10447266;28;20235;-62
2022/03/21 08:37:36;;;;;;;8.73;4.93;;;;;;;6.40;36.75;97732.38;10443851;28;20203;-59
2022/03/21 08:42:37;;;;;;;7.53;5.43;;;;;;;6.04;37.88;97752.16;10449801;28;20296;-56
2022/03/21 08:47:37;;;;;;;9.77;5.27;;;;;;;5.61;38.75;97766.16;10449736;28;20220;-59
2022/03/21 08:52:38;;;;;;;8.40;5.07;;;;;;;6.69;37.63;97772.03;10450518;28;20208;-60
2022/03/21 08:57:39;;;;;;;15.97;5.53;;;;;;;6.28;38.47;97786.09;10450391;28;20211;-60
2022/03/21 09:02:41;;;;;;;7.60;5.53;;;;;;;7.66;36.00;97748.69;10450549;28;20592;-60
2022/03/21 09:07:42;;;;;;;6.83;4.50;;;;;;;6.83;36.47;97741.59;10450180;28;20265;-56
2022/03/21 09:12:43;;;;;;;7.87;4.80;;;;;;;6.68;36.47;97751.31;10443519;28;20706;-57
2022/03/21 09:17:44;;;;;;;8.07;4.63;;;;;;;7.04;35.41;97718.41;10435570;28;20948;-60
2022/03/21 09:22:44;;;;;;;7.73;4.70;;;;;;;6.69;37.78;97768.59;10442775;28;20212;-56
2022/03/21 09:27:44;;;;;;;7.33;4.87;;;;;;;7.03;36.69;97734.97;10449696;28;20694;-57
2022/03/21 09:32:45;;;;;;;8.83;5.57;;;;;;;7.05;36.20;97748.72;10448143;28;20247;-56
2022/03/21 09:37:45;;;;;;;11.50;5.97;;;;;;;6.94;37.01;97745.09;10447797;28;20196;-55
2022/03/21 09:42:47;;;;;;;6.37;4.20;;;;;;;7.14;35.35;97716.81;10447842;28;20214;-54
2022/03/21 09:53:07;;;;;;;8.23;5.20;;;;;;;7.85;35.35;97730.72;10448058;28;20216;-55
2022/03/21 09:58:10;;;;;;;9.87;6.47;;;;;;;9.16;34.27;97735.56;10447744;28;20183;-59
2022/03/21 10:03:10;;;;;;;10.07;5.73;;;;;;;9.15;36.03;97809.72;10446508;28;20236;-59
2022/03/21 10:08:16;;;;;;;8.57;6.37;;;;;;;9.29;34.90;97753.72;10447534;28;20298;-60
2022/03/21 10:13:18;;;;;;;8.97;5.57;;;;;;;9.49;34.09;97757.34;10446425;28;20222;-61
2022/03/21 10:18:18;;;;;;;11.50;5.87;;;;;;;8.64;35.31;97750.94;10444977;28;20192;-58
2022/03/21 10:23:20;;;;;;;9.90;6.97;;;;;;;7.90;34.75;97698.25;10447600;28;20208;-57
2022/03/21 10:28:35;;;;;;;8.60;4.80;;;;;;;9.27;32.91;97685.03;10447187;28;20266;-56
2022/03/21 10:38:43;;;;;;;9.10;5.67;;;;;;;8.37;34.61;97715.50;10361024;28;20217;-53
2022/03/21 10:43:54;;;;;;;10.10;5.80;;;;;;;9.43;34.05;97760.44;10368029;28;20189;-56
2022/03/21 10:49:07;;;;;;;9.67;5.27;;;;;;;9.12;34.48;97754.25;10373469;28;20283;-52
2022/03/21 10:54:08;;;;;;;13.90;7.77;;;;;;;9.48;34.82;97779.25;10375810;28;20686;-60
2022/03/21 10:59:08;;;;;;;10.40;6.43;;;;;;;11.18;33.73;97804.44;10375891;28;20217;-56
2022/03/21 11:04:09;;;;;;;9.67;6.83;;;;;;;10.67;33.11;97728.41;10372953;28;20220;-57
2022/03/21 11:09:10;;;;;;;11.10;6.70;;;;;;;9.38;33.60;97726.00;10373814;28;20193;-52
2022/03/21 11:14:10;;;;;;;10.77;5.30;;;;;;;9.31;33.75;97719.59;10375729;28;20209;-57
2022/03/21 11:19:10;;;;;;;9.47;4.53;;;;;;;9.38;34.72;97758.22;10374279;28;20197;-58
2022/03/21 11:24:12;;;;;;;11.10;5.83;;;;;;;9.27;33.65;97714.63;10373705;28;20244;-57
2022/03/21 11:29:47;;;;;;;8.90;6.43;;;;;;;9.20;33.87;97713.44;10374919;28;20189;-59
2022/03/21 11:35:04;;;;;;;13.50;7.10;;;;;;;9.68;33.58;97730.53;10374102;28;20251;-55
2022/03/21 11:40:33;;;;;;;7.90;4.70;;;;;;;9.33;33.77;97728.16;10372904;28;20251;-56
2022/03/21 11:45:37;;;;;;;10.37;7.17;;;;;;;9.57;33.75;97731.41;10372728;28;20230;-58
2022/03/21 11:50:37;;;;;;;21.47;11.63;;;;;;;9.70;33.73;97722.56;10372749;28;20197;-58
2022/03/21 11:55:40;;;;;;;14.40;8.13;;;;;;;10.34;34.76;97803.66;10373510;28;20213;-58
2022/03/21 12:01:01;;;;;;;16.93;8.30;;;;;;;11.05;32.00;97703.25;10373798;28;20197;-58
2022/03/21 12:06:19;;;;;;;9.50;5.60;;;;;;;11.24;31.88;97706.88;10373529;28;20236;-57
2022/03/21 12:11:38;;;;;;;13.70;8.40;;;;;;;11.08;32.70;97723.13;10372228;28;20247;-58
2022/03/21 12:16:38;;;;;;;16.73;6.90;;;;;;;10.43;33.31;97714.75;10373667;28;20209;-59
2022/03/21 12:21:39;;;;;;;10.07;6.83;;;;;;;10.00;33.34;97696.47;10370932;28;20228;-56
2022/03/21 12:26:53;;;;;;;9.60;5.50;;;;;;;10.21;33.40;97705.25;10371217;28;20283;-60
2022/03/21 12:32:22;;;;;;;12.13;7.03;;;;;;;10.18;33.65;97706.34;10370844;28;20193;-56
2022/03/21 12:37:28;;;;;;;11.20;6.53;;;;;;;10.48;33.69;97726.50;10372386;28;20328;-57
2022/03/21 12:42:28;;;;;;;10.33;6.57;;;;;;;10.16;33.16;97682.91;10372123;28;20201;-61
2022/03/21 12:47:29;;;;;;;11.47;7.60;;;;;;;10.28;32.67;97677.59;10372538;28;20229;-59
2022/03/21 12:52:31;;;;;;;12.93;8.17;;;;;;;10.43;33.89;97709.50;10370508;28;20221;-57
2022/03/21 12:57:32;;;;;;;13.37;7.87;;;;;;;10.65;33.19;97685.75;10370246;28;20218;-59
2022/03/21 13:02:32;;;;;;;9.60;6.00;;;;;;;10.60;33.40;97703.69;10369615;28;20926;-62
2022/03/21 13:12:57;;;;;;;12.70;7.07;;;;;;;10.37;32.46;97666.38;10371220;28;20189;-58
2022/03/21 13:17:57;;;;;;;11.97;6.70;;;;;;;10.86;32.07;97666.53;10370985;28;20263;-60
2022/03/21 13:22:59;;;;;;;13.60;7.83;;;;;;;11.98;30.98;97678.44;10370949;28;20220;-59
2022/03/21 13:28:14;;;;;;;11.77;7.50;;;;;;;12.08;30.33;97660.84;10369426;28;20221;-62
2022/03/21 13:33:27;;;;;;;14.37;7.43;;;;;;;11.88;31.46;97674.00;10370707;28;20225;-61
2022/03/21 13:38:29;;;;;;;9.67;6.60;;;;;;;11.81;32.09;97708.81;10370156;28;20233;-61
2022/03/21 13:43:32;;;;;;;12.60;7.47;;;;;;;12.58;31.89;97735.94;10369972;28;20606;-58
2022/03/21 13:48:42;;;;;;;17.60;7.85;;;;;;;12.21;31.35;97698.16;10369828;28;20690;-59
2022/03/21 13:53:43;;;;;;;13.18;5.93;;;;;;;11.59;31.15;97642.53;10369776;28;20189;-59
2022/03/21 13:58:43;;;;;;;9.80;6.28;;;;;;;12.74;30.29;97651.19;10368726;28;20197;-58
2022/03/21 14:03:47;;;;;;;11.75;6.18;;;;;;;13.39;29.39;97635.25;10369083;28;20220;-61
2022/03/21 14:08:59;;;;;;;11.00;6.68;;;;;;;13.78;28.69;97615.63;10368712;28;20197;-57
2022/03/21 14:14:00;;;;;;;10.02;5.03;;;;;;;12.89;28.86;97581.31;10369183;28;20218;-59
2022/03/21 14:19:01;;;;;;;11.25;5.47;;;;;;;12.21;29.89;97605.38;10368921;28;20707;-58
2022/03/21 14:24:01;;;;;;;11.57;6.70;;;;;;;11.80;30.22;97607.41;10368898;28;20221;-58
2022/03/21 14:29:05;;;;;;;10.77;6.18;;;;;;;12.94;29.53;97612.44;10368643;28;20553;-60
2022/03/21 14:34:06;;;;;;;9.57;6.25;;;;;;;12.62;30.08;97617.22;10367539;28;20267;-60
2022/03/21 14:39:06;;;;;;;8.20;5.53;;;;;;;12.15;29.77;97590.19;10368881;28;20254;-60
2022/03/21 14:44:07;;;;;;;9.02;6.53;;;;;;;11.98;30.02;97576.03;10367545;28;20704;-60
2022/03/21 14:49:07;;;;;;;15.73;6.35;;;;;;;13.42;28.33;97576.25;10368755;28;20636;-61
2022/03/21 14:54:08;;;;;;;7.72;5.10;;;;;;;13.25;28.37;97567.34;10368133;28;20622;-58
2022/03/21 14:59:09;;;;;;;9.65;6.65;;;;;;;12.71;28.63;97551.56;10368140;28;20552;-59
2022/03/21 15:04:09;;;;;;;10.80;6.43;;;;;;;14.72;27.00;97577.06;10366618;28;20319;-59
2022/03/21 15:09:09;;;;;;;30.38;14.73;;;;;;;14.28;27.50;97556.97;10367584;28;20347;-58
2022/03/21 15:14:10;;;;;;;8.60;5.90;;;;;;;15.70;26.52;97557.78;10367860;28;20642;-61
2022/03/21 15:19:11;;;;;;;12.52;6.70;;;;;;;13.60;27.34;97528.78;10368042;28;20572;-56
2022/03/21 15:24:11;;;;;;;15.30;10.43;;;;;;;13.61;27.57;97530.44;10367984;28;20313;-56
2022/03/21 15:29:11;;;;;;;8.18;6.15;;;;;;;14.92;25.75;97507.19;10368058;28;20283;-58
2022/03/21 15:34:12;;;;;;;15.52;8.82;;;;;;;16.39;25.45;97547.50;10374307;28;20244;-57
2022/03/21 15:44:31;;;;;;;13.07;5.53;;;;;;;13.34;27.31;97496.22;10373924;28;20225;-58
2022/03/21 15:49:32;;;;;;;10.27;5.70;;;;;;;13.42;27.55;97529.69;10374647;28;20825;-60
2022/03/21 15:54:32;;;;;;;7.93;5.38;;;;;;;13.18;28.87;97583.75;10374254;28;20785;-57
2022/03/21 15:59:34;;;;;;;7.45;4.43;;;;;;;12.27;29.09;97531.25;10372527;28;20193;-59
2022/03/21 16:04:35;;;;;;;7.18;4.60;;;;;;;12.39;28.79;97519.56;10373837;28;20559;-61
2022/03/21 16:09:35;;;;;;;8.57;5.72;;;;;;;12.91;28.66;97565.41;10372491;28;20224;-60
2022/03/21 16:14:36;;;;;;;9.05;5.55;;;;;;;11.90;29.43;97539.97;10373133;28;20213;-61
2022/03/21 16:19:36;;;;;;;7.23;5.50;;;;;;;10.59;31.88;97567.56;10373182;28;20232;-59
2022/03/21 16:24:37;;;;;;;9.33;5.73;;;;;;;10.35;32.05;97594.94;10373017;28;20711;-55
2022/03/21 16:29:37;;;;;;;9.37;6.77;;;;;;;9.87;32.91;97601.59;10372806;28;20207;-60
2022/03/21 16:34:37;;;;;;;11.57;5.73;;;;;;;9.63;33.43;97610.56;10395625;23;20244;-59
2022/03/21 16:39:38;;;;;;;12.27;6.90;;;;;;;9.33;33.77;97616.56;10410863;28;20303;-57
2022/03/21 16:44:38;;;;;;;8.80;6.00;;;;;;;9.24;33.84;97625.97;10412967;28;20270;-60
2022/03/21 16:49:39;;;;;;;13.23;9.13;;;;;;;8.93;34.68;97659.00;10413368;28;20209;-60
2022/03/21 16:54:41;;;;;;;11.43;6.30;;;;;;;8.73;35.25;97682.31;10405985;28;20252;-59
2022/03/21 16:59:43;;;;;;;12.93;6.17;;;;;;;8.47;36.04;97696.56;10387799;28;20189;-62
2022/03/21 17:04:43;;;;;;;11.90;6.30;;;;;;;8.21;37.53;97738.53;10388363;28;20266;-58
2022/03/21 17:09:44;;;;;;;38.90;17.63;;;;;;;7.86;39.22;97805.44;10389177;28;20185;-59
2022/03/21 17:14:47;;;;;;;14.23;7.70;;;;;;;7.14;41.21;97858.34;10399525;28;20193;-59
2022/03/21 17:25:08;;;;;;;13.67;8.40;;;;;;;5.63;45.36;97941.06;10372624;28;20597;-56
2022/03/21 17:30:09;;;;;;;10.07;6.43;;;;;;;5.37;46.09;97963.44;10372153;28;20197;-59
2022/03/21 17:35:09;;;;;;;15.30;6.63;;;;;;;4.95;46.92;97989.28;10372201;28;20248;-58
2022/03/21 17:40:10;;;;;;;14.97;8.47;;;;;;;4.34;48.73;98024.75;10371230;28;20229;-57
2022/03/21 17:45:13;;;;;;;13.03;6.27;;;;;;;4.21;50.54;98081.69;10371254;28;20232;-58
2022/03/21 17:50:13;;;;;;;14.77;7.00;;;;;;;3.87;51.30;98100.78;10371046;28;20197;-57
2022/03/21 17:55:14;;;;;;;14.00;7.57;;;;;;;3.82;51.88;98108.78;10370295;28;20583;-55
2022/03/21 18:00:18;;;;;;;11.63;7.10;;;;;;;3.41;53.75;98142.00;10370526;28;20663;-54
2022/03/21 18:05:18;;;;;;;23.13;10.17;;;;;;;3.13;54.07;98161.47;10369492;28;20267;-57
2022/03/21 18:10:19;;;;;;;16.70;8.00;;;;;;;3.07;55.32;98178.13;10370457;28;20575;-55
2022/03/21 18:15:20;;;;;;;10.27;6.27;;;;;;;2.73;56.60;98195.25;10370251;28;20213;-55
2022/03/21 18:20:21;;;;;;;9.73;6.70;;;;;;;2.48;57.20;98209.31;10369942;28;20199;-58
2022/03/21 18:25:21;;;;;;;11.33;6.67;;;;;;;2.18;58.96;98226.19;10370144;28;20316;-57
2022/03/21 18:30:22;;;;;;;15.37;8.37;;;;;;;1.89;60.38;98247.19;10369523;28;20215;-56
2022/03/21 18:35:22;;;;;;;11.90;7.77;;;;;;;1.50;61.83;98257.41;10369819;28;20231;-57
2022/03/21 18:40:23;;;;;;;13.93;7.03;;;;;;;1.22;62.22;98254.16;10378775;28;20254;-57
2022/03/21 18:45:24;;;;;;;14.53;7.07;;;;;;;1.11;63.53;98269.25;10369344;28;20238;-54
2022/03/21 18:50:25;;;;;;;12.20;6.40;;;;;;;1.14;62.94;98238.16;10369335;28;20203;-54
2022/03/21 18:55:25;;;;;;;12.20;7.30;;;;;;;0.78;65.13;98269.63;10394469;28;20566;-57
2022/03/21 19:00:26;;;;;;;12.27;6.97;;;;;;;0.85;65.06;98258.16;10409783;28;20202;-57
2022/03/21 19:05:28;;;;;;;12.23;7.23;;;;;;;0.62;65.50;98251.28;10414405;28;20220;-58
2022/03/21 19:10:29;;;;;;;14.20;6.90;;;;;;;0.48;65.66;98248.38;10417934;28;20192;-57
2022/03/21 19:15:29;;;;;;;161.13;64.27;;;;;;;0.01;67.39;98271.50;10407854;28;20702;-58
2022/03/21 19:20:34;;;;;;;21.53;11.27;;;;;;;-0.12;68.57;98274.50;10416939;28;20189;-58
2022/03/21 19:25:36;;;;;;;14.63;7.53;;;;;;;-0.12;68.58;98271.06;10398711;28;20228;-54
2022/03/21 19:30:37;;;;;;;53.13;27.33;;;;;;;-0.22;69.27;98273.13;10410733;28;20711;-61
2022/03/21 19:35:37;;;;;;;19.47;7.83;;;;;;;-0.17;68.86;98260.09;10403259;28;20233;-60
2022/03/21 19:40:38;;;;;;;23.47;14.67;;;;;;;-0.43;68.68;98254.06;10375680;28;20219;-61
2022/03/21 19:45:40;;;;;;;13.67;6.63;;;;;;;-0.41;69.04;98254.88;10376217;28;20316;-61
2022/03/21 19:50:40;;;;;;;12.23;7.27;;;;;;;-0.60;69.57;98268.34;10375767;28;20193;-58
2022/03/21 19:55:41;;;;;;;18.03;9.50;;;;;;;-0.64;70.47;98265.91;10375169;28;20283;-57
2022/03/21 20:00:45;;;;;;;10.53;7.00;;;;;;;-0.62;70.07;98280.38;10374790;28;20268;-55
2022/03/21 20:05:45;;;;;;;16.00;7.90;;;;;;;-0.77;70.57;98262.84;10374494;28;20228;-56
2022/03/21 20:10:47;;;;;;;13.40;7.73;;;;;;;-0.75;69.65;98255.91;10374751;28;20618;-57
2022/03/21 20:15:47;;;;;;;13.70;7.40;;;;;;;-0.87;70.27;98253.72;10373935;28;20216;-57
2022/03/21 20:20:47;;;;;;;19.33;8.93;;;;;;;-0.70;70.65;98251.50;10374190;28;20196;-57
2022/03/21 20:25:48;;;;;;;24.50;9.00;;;;;;;-0.69;69.40;98229.16;10374109;28;20284;-54
2022/03/21 20:30:48;;;;;;;19.30;8.73;;;;;;;-0.86;70.16;98245.97;10373819;28;20272;-56
2022/03/21 20:35:48;;;;;;;17.40;8.33;;;;;;;-1.13;71.68;98260.53;10373710;28;20264;-55
2022/03/21 20:40:49;;;;;;;14.93;7.87;;;;;;;-1.23;72.89;98283.06;10373493;28;20189;-54
2022/03/21 20:45:49;;;;;;;15.13;8.50;;;;;;;-1.35;73.36;98291.97;10373365;28;20221;-56
2022/03/21 20:50:49;;;;;;;15.17;8.03;;;;;;;-1.55;74.35;98302.81;10373084;28;20197;-57
2022/03/21 20:55:50;;;;;;;14.83;8.43;;;;;;;-1.57;73.82;98280.63;10372852;28;20209;-57
2022/03/21 21:00:50;;;;;;;14.60;9.07;;;;;;;-1.78;73.83;98285.44;10372422;28;20203;-56
2022/03/21 21:05:50;;;;;;;16.13;7.83;;;;;;;-1.85;74.17;98289.91;10371751;28;20221;-56
2022/03/21 21:10:51;;;;;;;14.83;8.10;;;;;;;-1.94;74.37;98284.19;10372433;28;20280;-59
2022/03/21 21:15:52;;;;;;;16.53;8.17;;;;;;;-1.89;74.68;98296.00;10371541;28;20243;-55
2022/03/21 21:20:55;;;;;;;15.47;7.87;;;;;;;-1.84;74.19;98271.06;10391188;28;20203;-58
2022/03/21 21:25:57;;;;;;;15.30;7.90;;;;;;;-1.78;74.25;98267.47;10412366;28;20221;-55
2022/03/21 21:30:58;;;;;;;15.90;7.87;;;;;;;-1.80;73.40;98258.97;10411902;28;20180;-56
2022/03/21 21:35:58;;;;;;;16.13;8.03;;;;;;;-1.74;73.61;98271.66;10412832;28;20266;-58
2022/03/21 21:40:59;;;;;;;13.50;8.23;;;;;;;-1.98;74.04;98266.28;10412464;28;20254;-60
2022/03/21 21:45:59;;;;;;;15.00;7.90;;;;;;;-1.98;74.99;98298.81;10411968;28;20645;-59
2022/03/21 21:51:00;;;;;;;16.03;8.17;;;;;;;-2.14;75.23;98306.06;10412286;28;20330;-56
2022/03/21 21:56:00;;;;;;;14.57;8.47;;;;;;;-2.20;75.42;98301.09;10410794;28;20270;-55
2022/03/21 22:01:00;;;;;;;19.00;8.57;;;;;;;-2.18;75.87;98292.44;10411554;28;20227;-53
2022/03/21 22:06:01;;;;;;;17.63;7.87;;;;;;;-2.05;74.78;98282.72;10410901;28;20274;-58
2022/03/21 22:11:03;;;;;;;17.10;7.80;;;;;;;-2.17;74.61;98278.75;10411746;28;20192;-56
2022/03/21 22:16:04;;;;;;;17.00;8.87;;;;;;;-1.99;75.36;98281.72;10410200;28;20209;-57
2022/03/21 22:21:04;;;;;;;26.17;8.47;;;;;;;-1.60;73.16;98229.31;10409485;28;20223;-56
2022/03/21 22:26:05;;;;;;;17.77;8.53;;;;;;;-1.87;74.13;98254.88;10390335;28;20225;-54
2022/03/21 22:31:05;;;;;;;17.20;8.23;;;;;;;-2.21;74.97;98261.72;10388906;28;20185;-57
2022/03/21 22:36:06;;;;;;;18.40;8.57;;;;;;;-2.36;76.02;98265.53;10401035;28;20228;-56
2022/03/21 22:51:44;;;;;;;16.10;8.23;;;;;;;-2.46;77.13;98271.78;10423857;28;20243;-52
2022/03/21 22:56:44;;;;;;;14.67;8.37;;;;;;;-2.17;75.50;98241.97;10424367;28;20180;-55
2022/03/21 23:01:44;;;;;;;15.97;8.50;;;;;;;-1.76;72.61;98186.09;10423284;28;21427;-53
2022/03/21 23:06:45;;;;;;;14.70;8.17;;;;;;;-1.37;69.09;98121.53;10424181;28;20604;-54
2022/03/21 23:11:45;;;;;;;12.37;6.53;;;;;;;0.57;56.72;97869.00;10423838;28;20746;-52
2022/03/21 23:16:46;;;;;;;12.27;6.90;;;;;;;1.41;51.97;97792.13;10424069;28;20682;-58
2022/03/21 23:21:49;;;;;;;10.50;5.93;;;;;;;2.25;48.19;97719.09;10423852;28;20218;-58
2022/03/21 23:26:53;;;;;;;16.40;6.70;;;;;;;3.06;46.56;97727.75;10423722;28;20223;-56
2022/03/21 23:31:54;;;;;;;11.33;7.10;;;;;;;3.84;42.79;97640.38;10423650;28;20232;-59
2022/03/21 23:36:54;;;;;;;10.67;5.33;;;;;;;4.53;40.31;97591.22;10423693;28;20621;-58
2022/03/21 23:47:13;;;;;;;10.27;6.27;;;;;;;4.72;39.68;97608.25;10423207;28;20216;-58
2022/03/21 23:52:15;;;;;;;13.60;6.93;;;;;;;4.78;39.59;97607.84;10418234;28;20220;-56
2022/03/21 23:57:17;;;;;;;15.10;7.20;;;;;;;4.73;39.69;97615.06;10416365;28;20215;-58
